Time;durP1;ratioP1;P1;durP2;ratioP2;P2;SDS_P1;SDS_P2;PMS_P1;PMS_P2;Temp;Humidity;BMP_temperature;BMP_pressure;BME280_temperature;BME280_humidity;BME280_pressure;Samples;Min_cycle;Max_cycle;Signal;HPM_P1;HPM_P2
2022/12/06 00:01:31;;;;;;;5.07;2.83;;;;;;;6.04;100.00;102009.78;4988058;28;20474;-64
2022/12/06 00:04:00;;;;;;;4.82;2.80;;;;;;;6.05;100.00;102005.41;4979386;28;20050;-65
2022/12/06 00:06:29;;;;;;;4.95;3.03;;;;;;;6.03;100.00;102008.09;4987110;28;20061;-65
2022/12/06 00:08:57;;;;;;;4.75;2.78;;;;;;;6.01;100.00;102003.91;4976187;28;20534;-64
2022/12/06 00:11:30;;;;;;;4.97;2.75;;;;;;;6.04;100.00;102004.59;4980464;28;20388;-64
2022/12/06 00:14:03;;;;;;;5.60;3.30;;;;;;;6.05;100.00;102005.41;4978753;28;20894;-65
2022/12/06 00:16:30;;;;;;;5.97;2.88;;;;;;;6.01;100.00;102001.31;4986808;28;20066;-64
2022/12/06 00:18:57;;;;;;;4.57;3.00;;;;;;;6.04;100.00;102001.16;4984923;28;20085;-66
2022/12/06 00:21:29;;;;;;;6.10;3.22;;;;;;;6.07;100.00;102004.41;4978779;28;20360;-64
2022/12/06 00:24:02;;;;;;;5.32;3.05;;;;;;;6.06;100.00;101992.31;4979218;28;20057;-64
2022/12/06 00:26:30;;;;;;;5.88;3.60;;;;;;;6.06;100.00;101996.69;4979706;28;20050;-64
2022/12/06 00:28:59;;;;;;;5.60;2.85;;;;;;;6.08;100.00;101998.28;4985003;28;20055;-66
2022/12/06 00:31:28;;;;;;;6.40;3.42;;;;;;;6.04;100.00;102001.16;4978505;28;20061;-64
2022/12/06 00:33:55;;;;;;;8.52;3.28;;;;;;;6.05;100.00;102006.25;4980252;28;20461;-66
2022/12/06 00:36:26;;;;;;;6.32;2.95;;;;;;;6.07;100.00;101996.56;4975287;28;20129;-65
2022/12/06 00:38:52;;;;;;;6.20;3.35;;;;;;;6.04;100.00;101991.56;4975961;28;20050;-66
2022/12/06 00:41:23;;;;;;;6.93;3.70;;;;;;;6.11;100.00;101992.88;4985671;28;20058;-64
2022/12/06 00:43:51;;;;;;;6.07;3.45;;;;;;;6.12;100.00;101993.72;4982244;28;20077;-64
2022/12/06 00:46:21;;;;;;;5.68;3.30;;;;;;;6.16;100.00;101999.59;4984914;28;20406;-65
2022/12/06 00:48:48;;;;;;;6.72;3.08;;;;;;;6.15;100.00;101990.94;4979220;28;20072;-65
2022/12/06 00:51:17;;;;;;;5.88;3.25;;;;;;;6.16;100.00;101997.84;4985156;28;20057;-64
2022/12/06 00:53:44;;;;;;;4.82;3.10;;;;;;;6.11;100.00;101999.84;4985984;28;20076;-64
2022/12/06 00:56:11;;;;;;;5.13;3.20;;;;;;;6.09;100.00;102001.72;4980774;28;20058;-65
2022/12/06 00:58:38;;;;;;;5.75;3.40;;;;;;;6.10;100.00;101995.59;4986043;28;20463;-65
2022/12/06 01:01:17;;;;;;;4.93;3.00;;;;;;;6.13;100.00;101998.84;4965761;28;20046;-64
2022/12/06 01:03:44;;;;;;;4.95;3.10;;;;;;;6.11;100.00;101998.06;4974608;28;20058;-64
2022/12/06 01:06:13;;;;;;;5.30;3.17;;;;;;;6.14;100.00;101997.09;4972658;28;20062;-64
2022/12/06 01:08:41;;;;;;;4.78;2.97;;;;;;;6.11;100.00;102008.50;4983271;28;20050;-64
2022/12/06 01:11:09;;;;;;;5.47;3.00;;;;;;;6.12;100.00;101997.16;4982334;28;20057;-66
2022/12/06 01:13:36;;;;;;;6.10;3.13;;;;;;;6.12;100.00;102001.53;4987059;28;20069;-64
2022/12/06 01:16:07;;;;;;;5.00;3.30;;;;;;;6.10;100.00;101993.81;4978076;28;20054;-65
2022/12/06 01:18:35;;;;;;;5.68;2.97;;;;;;;6.10;100.00;101999.03;4977713;28;20065;-65
2022/12/06 01:21:04;;;;;;;5.78;3.00;;;;;;;6.09;100.00;102001.72;4971657;28;20058;-64
2022/12/06 01:23:30;;;;;;;5.60;3.50;;;;;;;6.01;100.00;102004.75;4971744;28;20105;-64
2022/12/06 01:25:56;;;;;;;5.38;3.40;;;;;;;6.04;100.00;102003.75;4989577;28;20054;-63
2022/12/06 01:28:23;;;;;;;7.00;3.63;;;;;;;6.03;100.00;101996.84;4983646;28;20475;-63
2022/12/06 01:30:49;;;;;;;6.30;3.42;;;;;;;6.01;100.00;101999.53;4976138;28;20490;-63
2022/12/06 01:33:16;;;;;;;5.15;3.42;;;;;;;6.01;100.00;102006.53;4980915;28;20078;-63
2022/12/06 01:35:42;;;;;;;5.20;3.30;;;;;;;6.03;100.00;102007.28;4978164;28;20101;-63
2022/12/06 01:38:09;;;;;;;7.55;3.40;;;;;;;6.08;100.00;102005.25;4981255;28;20050;-62
2022/12/06 01:40:40;;;;;;;6.28;3.53;;;;;;;6.11;100.00;102005.06;4979549;28;20058;-62
2022/12/06 01:43:28;;;;;;;5.10;3.60;;;;;;;6.15;100.00;102006.56;4984482;28;20061;-64
2022/12/06 01:45:57;;;;;;;5.40;3.55;;;;;;;6.14;100.00;102000.53;4979367;28;20521;-62
2022/12/06 01:48:25;;;;;;;5.55;3.70;;;;;;;6.15;100.00;102001.34;4978092;28;20093;-63
2022/12/06 01:50:55;;;;;;;5.70;3.20;;;;;;;6.14;100.00;101997.09;4981230;28;20166;-63
2022/12/06 01:53:23;;;;;;;5.72;3.42;;;;;;;6.16;100.00;101994.41;4974296;28;20050;-63
2022/12/06 01:55:52;;;;;;;7.10;3.65;;;;;;;6.16;100.00;101987.41;4987355;28;20415;-63
2022/12/06 01:58:27;;;;;;;6.88;3.38;;;;;;;6.20;100.00;101991.50;4975157;28;20798;-63
2022/12/06 02:00:53;;;;;;;4.75;2.80;;;;;;;6.16;100.00;101992.63;4980461;28;20069;-63
2022/12/06 02:03:24;;;;;;;5.30;3.03;;;;;;;6.20;100.00;101986.31;4984622;28;20315;-62
2022/12/06 02:05:51;;;;;;;7.55;3.60;;;;;;;6.20;100.00;101993.28;4977370;28;20117;-64
2022/12/06 02:08:19;;;;;;;7.05;3.90;;;;;;;6.21;100.00;101994.94;4985211;28;20474;-63
2022/12/06 02:10:45;;;;;;;9.05;3.97;;;;;;;6.17;100.00;101989.06;4964513;28;20399;-63
2022/12/06 02:13:12;;;;;;;8.57;3.95;;;;;;;6.21;100.00;101982.75;4979182;28;20105;-63
2022/12/06 02:15:50;;;;;;;7.25;3.50;;;;;;;6.25;100.00;101979.06;4974157;28;20112;-62
2022/12/06 02:18:40;;;;;;;6.57;3.90;;;;;;;6.27;100.00;101982.41;4984381;28;20050;-64
2022/12/06 02:21:34;;;;;;;7.75;3.53;;;;;;;6.29;100.00;101982.31;4977867;28;20125;-63
2022/12/06 02:24:09;;;;;;;6.45;3.53;;;;;;;6.28;100.00;101984.09;4979039;28;20054;-63
2022/12/06 02:26:46;;;;;;;5.43;3.33;;;;;;;6.30;100.00;101979.63;4979078;28;20097;-64
2022/12/06 02:29:50;;;;;;;6.20;3.65;;;;;;;6.30;100.00;101984.81;4977413;28;20258;-63
2022/12/06 02:32:21;;;;;;;8.23;3.85;;;;;;;6.27;100.00;101974.59;4982735;28;20043;-63
2022/12/06 02:35:10;;;;;;;5.90;3.45;;;;;;;6.30;100.00;101981.38;4982394;28;20054;-64
2022/12/06 02:37:41;;;;;;;;;;;;;;;6.30;100.00;101981.38;4984796;28;20047;-63
2022/12/06 02:40:18;;;;;;;7.20;4.03;;;;;;;6.29;100.00;101970.13;4980845;28;19933;-64
2022/12/06 02:42:56;;;;;;;6.88;3.75;;;;;;;6.27;100.00;101974.59;4980652;28;20654;-63
2022/12/06 02:45:26;;;;;;;;;;;;;;;6.27;100.00;101974.59;4980682;28;20062;-63
2022/12/06 02:47:55;;;;;;;7.28;3.83;;;;;;;6.30;100.00;101976.19;4985565;28;19929;-63
2022/12/06 02:50:28;;;;;;;6.68;3.92;;;;;;;6.32;100.00;101977.75;4977296;28;20069;-63
2022/12/06 02:52:58;;;;;;;6.53;3.70;;;;;;;6.31;100.00;101970.03;4984200;28;20065;-65
2022/12/06 02:55:26;;;;;;;8.52;3.85;;;;;;;6.32;100.00;101980.38;4977232;28;20062;-64
2022/12/06 02:57:53;;;;;;;10.85;3.85;;;;;;;6.27;100.00;101982.41;4985858;28;20104;-63
2022/12/06 03:00:35;;;;;;;11.40;4.47;;;;;;;6.32;100.00;101984.75;4987340;28;20065;-63
2022/12/06 03:03:04;;;;;;;6.55;4.07;;;;;;;6.31;100.00;101975.22;4979818;28;20495;-63
2022/12/06 03:05:39;;;;;;;7.95;4.03;;;;;;;6.32;100.00;101969.09;4986246;28;20042;-64
2022/12/06 03:08:17;;;;;;;8.60;3.65;;;;;;;6.31;100.00;101967.41;4976975;28;20097;-63
2022/12/06 03:10:50;;;;;;;8.20;4.13;;;;;;;6.25;100.00;101968.66;4972087;28;21096;-64
2022/12/06 03:13:29;;;;;;;6.30;3.65;;;;;;;6.25;100.00;101966.03;4979410;28;20108;-63
2022/12/06 03:16:03;;;;;;;11.75;4.38;;;;;;;6.27;100.00;101965.91;5017697;23;20057;-68
2022/12/06 03:18:35;;;;;;;8.95;4.25;;;;;;;6.22;100.00;101963.59;5018095;28;20096;-68
2022/12/06 03:21:14;;;;;;;8.57;3.90;;;;;;;6.23;100.00;101956.63;5026939;28;20268;-68
2022/12/06 03:23:44;;;;;;;10.93;4.55;;;;;;;6.24;100.00;101963.50;5024210;28;20044;-68
2022/12/06 03:26:22;;;;;;;8.07;4.07;;;;;;;6.25;100.00;101973.84;5003672;28;20056;-68
2022/12/06 03:28:51;;;;;;;11.48;4.40;;;;;;;6.22;100.00;101973.19;5025150;28;20049;-68
2022/12/06 03:31:21;;;;;;;8.68;4.43;;;;;;;6.21;100.00;101966.28;5021188;28;20476;-69
2022/12/06 03:33:59;;;;;;;8.48;3.78;;;;;;;6.24;100.00;101969.56;5028534;28;20045;-68
2022/12/06 03:36:27;;;;;;;10.57;4.22;;;;;;;6.17;100.00;101968.22;5017839;28;20057;-69
2022/12/06 03:39:00;;;;;;;16.20;5.25;;;;;;;6.23;100.00;101965.25;5024380;28;20474;-68
2022/12/06 03:41:41;;;;;;;10.73;4.28;;;;;;;6.22;100.00;101962.78;5022203;28;20611;-69
2022/12/06 03:44:08;;;;;;;11.88;4.70;;;;;;;6.19;100.00;101968.16;5009543;28;20053;-69
2022/12/06 03:46:42;;;;;;;13.55;5.00;;;;;;;6.23;100.00;101962.66;5021152;28;20053;-70
2022/12/06 03:49:16;;;;;;;10.13;4.50;;;;;;;6.20;100.00;101960.25;5010340;28;20131;-69
2022/12/06 03:51:44;;;;;;;11.25;5.22;;;;;;;6.18;100.00;101951.69;5021500;28;20487;-67
2022/12/06 03:54:11;;;;;;;7.45;4.55;;;;;;;6.17;100.00;101962.19;5016624;28;20068;-68
2022/12/06 03:56:38;;;;;;;8.52;4.55;;;;;;;6.14;100.00;101955.41;5041091;28;20049;-68
2022/12/06 03:59:06;;;;;;;12.80;4.32;;;;;;;6.14;100.00;101958.00;5020638;28;20512;-68
2022/12/06 04:01:32;;;;;;;13.10;4.95;;;;;;;6.11;100.00;101956.41;5013659;28;20046;-68
2022/12/06 04:03:59;;;;;;;11.98;4.82;;;;;;;6.10;100.00;101959.13;5033654;28;20045;-69
2022/12/06 04:06:26;;;;;;;9.40;4.43;;;;;;;6.06;100.00;101958.44;5026741;28;20049;-68
2022/12/06 04:09:50;;;;;;;7.43;3.80;;;;;;;6.06;100.00;101950.63;5033715;28;20044;-68
2022/12/06 04:11:39;;;;;;;15.25;4.78;;;;;;;6.07;100.00;101957.50;5024483;28;20532;-68
2022/12/06 04:14:06;;;;;;;8.85;4.32;;;;;;;6.05;100.00;101958.53;5042628;28;20053;-68
2022/12/06 04:19:17;;;;;;;11.05;4.40;;;;;;;5.97;100.00;101966.78;5028256;28;20513;-69
2022/12/06 04:24:29;;;;;;;6.70;3.13;;;;;;;5.93;100.00;101960.88;5028998;28;20049;-68
2022/12/06 04:40:45;;;;;;;9.15;4.13;;;;;;;5.89;100.00;101961.97;5020361;28;20350;-68
2022/12/06 04:45:57;;;;;;;7.63;4.10;;;;;;;5.83;100.00;101962.34;5013487;28;20462;-68
2022/12/06 04:48:23;;;;;;;8.45;3.90;;;;;;;5.82;100.00;101962.41;5027481;28;20053;-69
2022/12/06 04:50:50;;;;;;;7.32;3.90;;;;;;;5.82;100.00;101960.69;5028241;28;20068;-68
2022/12/06 04:53:16;;;;;;;7.10;3.97;;;;;;;5.82;100.00;101958.06;5027401;28;20557;-68
2022/12/06 04:55:47;;;;;;;12.18;4.20;;;;;;;5.86;100.00;101956.97;5023256;28;20049;-70
2022/12/06 04:58:14;;;;;;;8.35;3.58;;;;;;;5.79;100.00;101958.22;5016997;28;20053;-67
2022/12/06 05:00:44;;;;;;;9.75;3.67;;;;;;;5.78;100.00;101953.09;5024638;28;20096;-68
2022/12/06 05:03:12;;;;;;;8.85;3.92;;;;;;;5.78;100.00;101959.16;5014356;28;20061;-68
2022/12/06 05:05:39;;;;;;;9.45;3.83;;;;;;;5.78;100.00;101960.91;5027718;28;20126;-69
2022/12/06 05:08:05;;;;;;;7.10;3.78;;;;;;;5.71;100.00;101958.66;5017863;28;20049;-69
2022/12/06 05:10:33;;;;;;;8.93;3.72;;;;;;;5.68;100.00;101961.44;5026258;28;20502;-68
2022/12/06 05:13:00;;;;;;;9.15;3.42;;;;;;;5.68;100.00;101963.22;5031188;28;20413;-68
2022/12/06 05:15:27;;;;;;;7.57;4.13;;;;;;;5.64;100.00;101954.72;5020556;28;20068;-68
2022/12/06 05:17:55;;;;;;;9.77;3.87;;;;;;;5.64;100.00;101965.13;5035109;28;20131;-70
2022/12/06 05:20:22;;;;;;;7.15;3.08;;;;;;;5.65;100.00;101961.63;5018375;28;20104;-68
2022/12/06 05:22:48;;;;;;;7.90;4.15;;;;;;;5.65;100.00;101963.41;5016428;28;20049;-69
2022/12/06 05:25:15;;;;;;;6.38;4.03;;;;;;;5.63;100.00;101962.66;5022567;28;20049;-68
2022/12/06 05:27:42;;;;;;;8.88;3.65;;;;;;;5.64;100.00;101961.69;5020921;28;20077;-67
2022/12/06 05:30:09;;;;;;;6.30;3.05;;;;;;;5.67;100.00;101964.16;5019732;28;20072;-68
2022/12/06 05:32:37;;;;;;;4.93;3.10;;;;;;;5.65;100.00;101959.03;5007329;28;20061;-68
2022/12/06 05:35:05;;;;;;;7.07;3.00;;;;;;;5.64;100.00;101961.69;5017692;28;20056;-68
2022/12/06 05:37:31;;;;;;;6.88;3.60;;;;;;;5.61;100.00;101954.91;4989365;28;20392;-68
2022/12/06 05:39:58;;;;;;;9.02;3.40;;;;;;;5.63;100.00;101947.03;5014730;28;20056;-68
2022/12/06 05:42:25;;;;;;;5.80;3.40;;;;;;;5.65;100.00;101960.78;5027752;28;20057;-69
2022/12/06 05:44:51;;;;;;;7.22;3.65;;;;;;;5.62;100.00;101953.97;5026995;28;20045;-68
2022/12/06 05:47:18;;;;;;;8.70;3.25;;;;;;;5.62;100.00;101953.97;5023235;28;20430;-69
2022/12/06 05:49:44;;;;;;;6.57;3.50;;;;;;;5.62;100.00;101946.16;5010883;28;20367;-68
2022/12/06 05:52:10;;;;;;;7.75;3.58;;;;;;;5.62;100.00;101948.75;5017847;28;20065;-69
2022/12/06 05:54:37;;;;;;;6.95;3.28;;;;;;;5.65;100.00;101947.78;5011545;28;20523;-68
2022/12/06 05:57:03;;;;;;;6.30;2.88;;;;;;;5.67;100.00;101949.34;5029487;28;20049;-68
2022/12/06 05:59:30;;;;;;;6.13;3.13;;;;;;;5.66;100.00;101947.66;5018468;28;20131;-69
2022/12/06 06:01:56;;;;;;;7.03;2.95;;;;;;;5.66;100.00;101950.28;5031723;28;20544;-68
2022/12/06 06:04:23;;;;;;;6.07;3.08;;;;;;;5.65;100.00;101958.19;5024573;28;20291;-68
2022/12/06 06:06:50;;;;;;;7.45;3.05;;;;;;;5.61;100.00;101951.47;5009002;28;20135;-70
2022/12/06 06:09:16;;;;;;;7.00;3.40;;;;;;;5.63;100.00;101953.06;5016395;28;20053;-68
2022/12/06 06:11:43;;;;;;;6.82;3.08;;;;;;;5.62;100.00;101953.97;5012640;28;20061;-68
2022/12/06 06:14:09;;;;;;;6.80;3.30;;;;;;;5.62;100.00;101958.34;5014473;28;20057;-69
2022/12/06 06:16:36;;;;;;;9.15;3.33;;;;;;;5.64;100.00;101964.31;5031907;28;20049;-68
2022/12/06 06:19:02;;;;;;;8.88;3.38;;;;;;;5.63;100.00;101963.47;5024998;28;20037;-68
2022/12/06 06:21:29;;;;;;;5.82;3.40;;;;;;;5.64;100.00;101956.50;5005789;28;20071;-68
2022/12/06 06:23:56;;;;;;;15.73;3.53;;;;;;;5.65;100.00;101960.78;5016405;28;20060;-69
2022/12/06 06:26:23;;;;;;;9.95;3.67;;;;;;;5.62;100.00;101961.78;5033550;28;20045;-68
2022/12/06 06:28:49;;;;;;;7.80;2.92;;;;;;;5.62;100.00;101964.38;5017068;28;20049;-72
2022/12/06 06:31:16;;;;;;;7.18;3.90;;;;;;;5.61;100.00;101967.09;5025769;28;20057;-72
2022/12/06 06:33:42;;;;;;;6.57;3.33;;;;;;;5.57;100.00;101960.34;5027293;28;20051;-72
2022/12/06 06:36:09;;;;;;;6.10;3.30;;;;;;;5.56;100.00;101959.53;5025474;28;20057;-72
2022/12/06 06:38:35;;;;;;;7.13;3.33;;;;;;;5.51;100.00;101961.56;5032023;28;20053;-72
2022/12/06 06:41:02;;;;;;;7.43;3.45;;;;;;;5.52;100.00;101964.06;5009704;28;20132;-73
2022/12/06 06:43:29;;;;;;;7.63;4.05;;;;;;;5.53;100.00;101965.75;5033360;28;20393;-74
2022/12/06 06:45:58;;;;;;;7.13;3.88;;;;;;;5.57;100.00;101963.81;5001195;28;20049;-72
2022/12/06 06:48:27;;;;;;;9.10;3.33;;;;;;;5.57;100.00;101963.81;5011385;28;20053;-71
2022/12/06 06:50:54;;;;;;;7.00;3.53;;;;;;;5.58;100.00;101972.47;5014756;28;20045;-73
2022/12/06 06:53:26;;;;;;;7.80;3.38;;;;;;;5.58;100.00;101969.84;5024463;28;20053;-72
2022/12/06 06:55:52;;;;;;;6.68;3.47;;;;;;;5.51;100.00;101961.56;5020946;28;20067;-73
2022/12/06 06:58:19;;;;;;;13.77;3.90;;;;;;;5.47;100.00;101971.31;5028634;28;20053;-73
2022/12/06 07:00:51;;;;;;;8.30;3.60;;;;;;;5.55;100.00;101974.31;5027076;28;20048;-72
2022/12/06 07:03:19;;;;;;;6.32;3.40;;;;;;;5.53;100.00;101964.91;5025675;28;20056;-72
2022/12/06 07:06:00;;;;;;;7.87;4.47;;;;;;;5.61;100.00;101970.53;5035511;28;20084;-72
2022/12/06 07:08:29;;;;;;;8.60;4.38;;;;;;;5.65;100.00;101966.81;5025492;28;20482;-72
2022/12/06 07:10:55;;;;;;;7.70;3.33;;;;;;;5.58;100.00;101962.06;5026399;28;20053;-71
2022/12/06 07:13:24;;;;;;;15.88;3.90;;;;;;;5.60;100.00;101957.59;5027168;28;20049;-72
2022/12/06 07:15:51;;;;;;;9.85;3.60;;;;;;;5.59;100.00;101959.38;4995206;28;20057;-72
2022/12/06 07:18:19;;;;;;;6.60;3.88;;;;;;;5.57;100.00;101958.63;5022193;28;20049;-73
2022/12/06 07:20:47;;;;;;;6.53;3.60;;;;;;;5.57;100.00;101962.97;5023110;28;20059;-73
2022/12/06 07:23:14;;;;;;;;;;;;;;;5.61;100.00;101960.13;5023207;28;20398;-73
2022/12/06 07:25:41;;;;;;;11.65;3.75;;;;;;;5.55;100.00;101957.88;5033981;28;19925;-71
2022/12/06 07:28:07;;;;;;;11.55;3.53;;;;;;;5.57;100.00;101961.22;5020859;28;20494;-74
2022/12/06 07:30:33;;;;;;;9.73;4.05;;;;;;;5.51;100.00;101962.41;5019641;28;20498;-73
2022/12/06 07:33:00;;;;;;;7.15;3.40;;;;;;;5.48;100.00;101962.56;5013885;28;20120;-73
2022/12/06 07:35:27;;;;;;;11.63;4.13;;;;;;;5.51;100.00;101969.38;5025935;28;20049;-72
2022/12/06 07:38:13;;;;;;;8.10;4.50;;;;;;;5.49;100.00;101964.25;5028624;28;20509;-73
2022/12/06 07:40:39;;;;;;;7.28;3.65;;;;;;;5.49;100.00;101959.03;5036171;28;20050;-73
2022/12/06 07:46:11;;;;;;;9.15;3.17;;;;;;;5.52;100.00;101969.25;5027753;28;20060;-73
2022/12/06 07:48:38;;;;;;;8.60;3.55;;;;;;;5.52;100.00;101958.84;5039584;28;20056;-73
2022/12/06 07:51:05;;;;;;;5.95;3.22;;;;;;;5.53;100.00;101957.13;5025423;28;20080;-72
2022/12/06 07:53:31;;;;;;;7.78;2.97;;;;;;;5.53;100.00;101962.31;5025094;28;20049;-72
2022/12/06 07:56:05;;;;;;;5.70;3.15;;;;;;;5.54;100.00;101964.81;5019145;28;20135;-72
2022/12/06 07:58:31;;;;;;;6.53;3.30;;;;;;;5.54;100.00;101966.59;5021059;28;20104;-72
2022/12/06 08:00:58;;;;;;;7.07;3.30;;;;;;;5.57;100.00;101962.97;5022277;28;20707;-72
2022/12/06 08:03:24;;;;;;;8.65;3.72;;;;;;;5.60;100.00;101968.84;5027522;28;20134;-72
2022/12/06 08:05:54;;;;;;;5.05;2.92;;;;;;;5.66;100.00;101967.66;5026283;28;20049;-72
2022/12/06 08:08:21;;;;;;;5.28;3.03;;;;;;;5.59;100.00;101963.75;5024248;28;20191;-73
2022/12/06 08:10:53;;;;;;;9.20;3.45;;;;;;;5.61;100.00;101967.94;5020620;28;20048;-74
2022/12/06 08:13:20;;;;;;;6.45;2.80;;;;;;;5.61;100.00;101960.13;5020499;28;20171;-72
2022/12/06 08:15:46;;;;;;;7.47;3.13;;;;;;;5.62;100.00;101964.38;5031134;28;20057;-73
2022/12/06 08:18:13;;;;;;;10.02;3.05;;;;;;;5.65;100.00;101968.59;5019390;28;20280;-73
2022/12/06 08:20:39;;;;;;;6.32;2.97;;;;;;;5.69;100.00;101959.69;5022383;28;20269;-72
2022/12/06 08:23:06;;;;;;;5.85;2.92;;;;;;;5.67;100.00;101961.53;5011126;28;20128;-73
2022/12/06 08:25:32;;;;;;;5.80;2.75;;;;;;;5.71;100.00;101968.25;5031850;28;20515;-73
2022/12/06 08:27:58;;;;;;;7.20;2.97;;;;;;;5.72;100.00;101967.31;5026987;28;20604;-72
2022/12/06 08:30:25;;;;;;;4.22;2.50;;;;;;;5.76;100.00;101976.63;5026427;28;20075;-73
2022/12/06 08:32:51;;;;;;;5.00;2.53;;;;;;;5.77;100.00;101978.31;5036781;28;20130;-68
2022/12/06 08:35:18;;;;;;;8.05;2.70;;;;;;;5.79;100.00;101973.84;5025923;28;20470;-69
2022/12/06 08:37:44;;;;;;;4.70;2.30;;;;;;;5.80;100.00;101982.50;5021966;28;20140;-68
2022/12/06 08:40:11;;;;;;;7.45;2.47;;;;;;;5.81;100.00;101977.22;5021899;28;20045;-68
2022/12/06 08:42:37;;;;;;;4.78;2.60;;;;;;;5.76;100.00;101979.22;5006009;28;20049;-68
2022/12/06 08:45:04;;;;;;;8.48;2.90;;;;;;;5.78;100.00;101977.38;5031378;28;20045;-69
2022/12/06 08:47:31;;;;;;;10.75;3.00;;;;;;;5.73;100.00;101985.47;5019274;28;20080;-69
2022/12/06 08:49:57;;;;;;;4.30;2.28;;;;;;;5.65;100.00;101984.22;5028488;28;20046;-68
2022/12/06 08:52:24;;;;;;;6.50;2.45;;;;;;;5.63;100.00;101986.91;5004214;28;20057;-70
2022/12/06 08:54:51;;;;;;;4.90;3.03;;;;;;;5.60;100.00;101988.84;5018077;28;20533;-68
2022/12/06 08:57:17;;;;;;;8.75;2.38;;;;;;;5.58;100.00;101978.50;5014230;28;20079;-69
2022/12/06 08:59:44;;;;;;;5.35;2.67;;;;;;;5.51;100.00;101992.78;5013991;28;20267;-68
2022/12/06 09:02:11;;;;;;;8.20;2.47;;;;;;;5.51;100.00;101985.00;5032632;28;20136;-68
2022/12/06 09:04:38;;;;;;;5.20;2.47;;;;;;;5.41;100.00;101987.25;5011712;28;20149;-68
2022/12/06 09:07:04;;;;;;;4.90;2.80;;;;;;;5.40;100.00;101990.78;5017535;28;20059;-68
2022/12/06 09:09:37;;;;;;;7.15;2.83;;;;;;;5.39;100.00;101993.44;4994526;28;20056;-68
2022/12/06 09:12:03;;;;;;;4.20;2.33;;;;;;;5.40;100.00;101987.34;5025501;28;20512;-68
2022/12/06 09:14:30;;;;;;;4.82;2.60;;;;;;;5.36;100.00;101991.88;5022872;28;20528;-68
2022/12/06 09:16:56;;;;;;;6.93;2.42;;;;;;;5.37;100.00;101998.75;5008802;28;20486;-68
2022/12/06 09:19:23;;;;;;;7.15;2.97;;;;;;;5.34;100.00;101993.72;5006819;28;20052;-68
2022/12/06 09:21:49;;;;;;;6.70;2.90;;;;;;;5.34;100.00;101991.13;5016089;28;20426;-70
2022/12/06 09:24:17;;;;;;;14.77;3.10;;;;;;;5.31;100.00;101992.13;5030878;28;20523;-68
2022/12/06 09:26:44;;;;;;;5.32;2.47;;;;;;;5.31;100.00;101989.53;5018890;28;20079;-68
2022/12/06 09:29:11;;;;;;;6.47;2.67;;;;;;;5.25;100.00;101989.88;5027236;28;20446;-68
2022/12/06 09:31:39;;;;;;;5.97;2.60;;;;;;;5.21;100.00;101995.28;5022847;28;20133;-69
2022/12/06 09:34:07;;;;;;;4.32;2.25;;;;;;;5.22;100.00;101991.78;5016634;28;20418;-68
2022/12/06 09:36:40;;;;;;;5.10;1.98;;;;;;;5.24;100.00;101992.53;5021261;28;20053;-68
2022/12/06 09:39:12;;;;;;;5.07;2.50;;;;;;;5.24;100.00;101992.53;5013105;28;20049;-68
2022/12/06 09:42:03;;;;;;;5.53;2.65;;;;;;;5.26;100.00;102001.09;5018823;28;20413;-67
2022/12/06 09:44:30;;;;;;;8.80;2.97;;;;;;;5.23;100.00;102001.25;5005915;28;20064;-68
2022/12/06 09:47:24;;;;;;;5.32;2.17;;;;;;;5.26;100.00;101998.50;5021315;28;20045;-69
2022/12/06 09:50:16;;;;;;;5.63;2.58;;;;;;;5.24;100.00;101995.97;4985778;28;20045;-68
2022/12/06 09:53:15;;;;;;;6.00;2.42;;;;;;;5.28;100.00;101994.06;5025799;28;20168;-68
2022/12/06 09:56:03;;;;;;;7.47;2.65;;;;;;;5.32;100.00;102000.75;5022120;28;20050;-68
2022/12/06 09:58:55;;;;;;;6.45;2.33;;;;;;;5.33;100.00;101987.69;5025038;28;20049;-68
2022/12/06 10:01:49;;;;;;;4.38;2.63;;;;;;;5.37;100.00;101992.69;5000908;28;20497;-69
2022/12/06 10:04:38;;;;;;;7.13;2.47;;;;;;;5.37;100.00;101985.75;5011520;28;20444;-68
2022/12/06 10:07:18;;;;;;;7.97;2.45;;;;;;;5.41;100.00;101987.25;5019525;28;20041;-69
2022/12/06 10:09:53;;;;;;;4.05;2.38;;;;;;;5.41;100.00;101979.44;5017023;28;20686;-67
2022/12/06 10:12:44;;;;;;;3.90;2.17;;;;;;;5.41;100.00;101974.25;5017645;28;20083;-68
2022/12/06 10:15:18;;;;;;;4.00;2.30;;;;;;;5.38;100.00;101974.41;5029146;28;20668;-67
2022/12/06 10:18:01;;;;;;;6.30;2.35;;;;;;;5.42;100.00;101973.31;5016956;28;20049;-68
2022/12/06 10:20:44;;;;;;;10.10;2.90;;;;;;;5.43;100.00;101972.41;5012704;28;20045;-68
2022/12/06 10:23:39;;;;;;;5.28;2.70;;;;;;;5.48;100.00;101975.56;5031971;28;20494;-68
2022/12/06 10:26:20;;;;;;;5.90;2.55;;;;;;;5.49;100.00;101964.25;5012359;28;20052;-68
2022/12/06 10:28:53;;;;;;;5.97;1.98;;;;;;;5.52;100.00;101968.44;5022136;28;20061;-67
2022/12/06 10:31:21;;;;;;;8.75;2.58;;;;;;;5.50;100.00;101963.31;5029149;28;20128;-67
2022/12/06 10:34:17;;;;;;;5.10;2.20;;;;;;;5.58;100.00;101973.28;5031289;28;20053;-69
2022/12/06 10:36:56;;;;;;;4.28;1.90;;;;;;;5.59;100.00;101964.56;4996311;28;20210;-68
2022/12/06 10:39:31;;;;;;;4.15;2.10;;;;;;;5.66;100.00;101971.09;5020297;28;20387;-68
2022/12/06 10:42:12;;;;;;;6.10;2.10;;;;;;;5.68;100.00;101964.03;5014546;28;20056;-68
2022/12/06 10:44:51;;;;;;;3.33;1.70;;;;;;;5.75;100.00;101962.78;5028847;28;20049;-68
2022/12/06 10:47:40;;;;;;;3.13;1.80;;;;;;;5.83;100.00;101970.16;5025412;28;20063;-69
2022/12/06 10:50:18;;;;;;;6.95;2.00;;;;;;;5.87;100.00;101966.44;5034839;28;20044;-67
2022/12/06 10:52:50;;;;;;;2.33;1.40;;;;;;;5.89;100.00;101971.56;5032074;28;20049;-67
2022/12/06 10:55:38;;;;;;;5.88;1.83;;;;;;;5.97;100.00;101968.56;5024059;28;20064;-67
2022/12/06 10:58:33;;;;;;;3.53;1.80;;;;;;;6.01;100.00;101965.69;5030943;28;20504;-68
2022/12/06 11:01:09;;;;;;;5.70;1.77;;;;;;;6.04;100.00;101956.88;5011258;28;20136;-68
2022/12/06 11:03:58;;;;;;;5.35;1.80;;;;;;;6.08;100.00;101956.59;5027245;28;20478;-67
2022/12/06 11:06:36;;;;;;;;;;;;;;;6.09;100.00;101960.03;4996653;28;20057;-69
2022/12/06 11:09:38;;;;;;;4.97;1.80;;;;;;;6.10;100.00;101953.91;5035876;28;20015;-68
2022/12/06 11:12:28;;;;;;;3.72;1.63;;;;;;;6.04;100.00;101949.88;5006393;28;20282;-69
2022/12/06 11:15:15;;;;;;;6.53;2.40;;;;;;;6.02;100.00;101949.13;5012738;28;20615;-67
2022/12/06 11:17:46;;;;;;;7.85;2.85;;;;;;;6.04;100.00;101947.28;5011863;28;20053;-68
2022/12/06 11:20:30;;;;;;;5.63;1.80;;;;;;;6.05;100.00;101946.34;5034228;28;20045;-68
2022/12/06 11:23:13;;;;;;;5.10;1.70;;;;;;;6.09;100.00;101947.00;5008184;28;20050;-68
2022/12/06 11:26:19;;;;;;;4.97;2.10;;;;;;;6.19;100.00;101942.91;5035384;28;20045;-69
2022/12/06 11:28:54;;;;;;;3.53;2.20;;;;;;;6.27;100.00;101932.06;5007471;28;20057;-67
2022/12/06 11:31:27;;;;;;;5.65;1.70;;;;;;;6.31;100.00;101938.75;5012705;28;20054;-67
2022/12/06 11:33:55;;;;;;;5.05;1.80;;;;;;;6.29;100.00;101932.78;5035743;28;20055;-70
2022/12/06 11:36:24;;;;;;;4.72;1.77;;;;;;;6.35;100.00;101935.06;5035782;28;20145;-67
2022/12/06 11:38:51;;;;;;;7.05;2.10;;;;;;;6.43;100.00;101929.34;5022450;28;20099;-68
2022/12/06 11:41:25;;;;;;;5.65;1.98;;;;;;;6.59;100.00;101934.50;5026276;28;20488;-69
2022/12/06 11:43:53;;;;;;;2.85;1.80;;;;;;;6.68;100.00;101936.53;5023171;28;20600;-69
2022/12/06 11:46:21;;;;;;;4.70;2.08;;;;;;;6.72;100.00;101931.06;5018430;28;20058;-69
2022/12/06 11:48:49;;;;;;;4.28;1.67;;;;;;;6.74;100.00;101928.34;5019701;28;20056;-68
2022/12/06 11:51:19;;;;;;;3.65;1.85;;;;;;;6.88;100.00;101927.47;5026766;28;20116;-68
2022/12/06 11:53:52;;;;;;;8.43;2.47;;;;;;;6.90;100.00;101933.47;5025847;28;20053;-68
2022/12/06 11:56:25;;;;;;;4.93;2.13;;;;;;;6.90;100.00;101923.88;5026958;28;20053;-69
2022/12/06 11:59:02;;;;;;;5.32;2.05;;;;;;;6.94;100.00;101924.53;5025085;28;20052;-68
2022/12/06 12:01:49;;;;;;;5.53;2.00;;;;;;;7.05;100.00;101926.44;5020295;28;20061;-69
2022/12/06 12:04:30;;;;;;;6.00;2.15;;;;;;;7.09;100.00;101920.09;5014579;28;20042;-68
2022/12/06 12:07:01;;;;;;;5.85;2.17;;;;;;;7.10;100.00;101920.00;5018260;28;20145;-68
2022/12/06 12:09:45;;;;;;;3.53;1.70;;;;;;;7.17;100.00;101911.78;5013522;28;20065;-68